createdAt,value
2017-02-14T00:00:53.460Z,60.76
2017-02-14T00:01:53.484Z,60.38
2017-02-14T00:02:53.486Z,60.38
2017-02-14T00:03:53.099Z,60.38
2017-02-14T00:04:53.508Z,60.38
2017-02-14T00:05:53.514Z,60.57
2017-02-14T00:06:53.531Z,60.57
2017-02-14T00:07:53.535Z,60.67
2017-02-14T00:08:53.544Z,60.57
2017-02-14T00:09:53.559Z,60.57
2017-02-14T00:10:53.570Z,60.38
2017-02-14T00:11:53.577Z,60.1
2017-02-14T00:12:53.589Z,60.38
2017-02-14T00:13:53.605Z,60.38
2017-02-14T00:14:53.604Z,60.67
2017-02-14T00:15:53.617Z,60.67
2017-02-14T00:16:53.638Z,60.38
2017-02-14T00:17:53.655Z,60.38
2017-02-14T00:18:53.669Z,60.38
2017-02-14T00:19:53.659Z,60.1
2017-02-14T00:20:53.668Z,60.28
2017-02-14T00:21:53.696Z,60.35
2017-02-14T00:22:53.694Z,60.28
2017-02-14T00:23:53.709Z,60.67
2017-02-14T00:24:53.714Z,60.86
2017-02-14T00:25:53.723Z,60.86
2017-02-14T00:26:53.736Z,60.92
2017-02-14T00:27:53.762Z,60.73
2017-02-14T00:28:53.775Z,60.64
2017-02-14T00:29:53.773Z,60.83
2017-02-14T00:30:53.777Z,60.83
2017-02-14T00:31:53.794Z,60.64
2017-02-14T00:32:53.794Z,60.35
2017-02-14T00:33:53.822Z,60.38
2017-02-14T00:34:53.818Z,60.83
2017-02-14T00:35:53.830Z,60.44
2017-02-14T00:36:53.841Z,60.44
2017-02-14T00:37:53.851Z,60.64
2017-02-14T00:38:53.863Z,60.92
2017-02-14T00:39:53.871Z,61.02
2017-02-14T00:40:53.889Z,60.83
2017-02-14T00:41:53.889Z,60.73
2017-02-14T00:42:53.897Z,60.92
2017-02-14T00:43:53.921Z,60.64
2017-02-14T00:44:53.930Z,60.73
2017-02-14T00:45:53.943Z,60.73
2017-02-14T00:46:53.939Z,60.73
2017-02-14T00:47:53.960Z,60.54
2017-02-14T00:48:53.961Z,60.73
2017-02-14T00:49:53.975Z,60.73
2017-02-14T00:50:53.984Z,60.92
2017-02-14T00:51:54.004Z,60.92
2017-02-14T00:52:54.005Z,60.83
2017-02-14T00:53:54.015Z,60.64
2017-02-14T00:54:54.020Z,60.54
2017-02-14T00:55:53.636Z,60.64
2017-02-14T00:56:54.050Z,60.92
2017-02-14T00:57:54.056Z,60.92
2017-02-14T00:58:54.083Z,61.02
2017-02-14T00:59:54.074Z,60.92
2017-02-14T01:00:54.092Z,61.02
2017-02-14T01:01:54.091Z,61.11
2017-02-14T01:02:54.101Z,61.3
2017-02-14T01:03:54.119Z,61.02
2017-02-14T01:04:54.132Z,61.02
2017-02-14T01:05:53.739Z,60.73
2017-02-14T01:06:54.147Z,60.92
2017-02-14T01:07:54.164Z,60.92
2017-02-14T01:08:54.168Z,61.4
2017-02-14T01:09:54.186Z,61.11
2017-02-14T01:10:54.193Z,61.11
2017-02-14T01:11:54.205Z,61.02
2017-02-14T01:12:54.220Z,61.11
2017-02-14T01:13:54.220Z,60.92
2017-02-14T01:14:54.225Z,61.02
2017-02-14T01:15:54.240Z,61.02
2017-02-14T01:16:54.249Z,61.11
2017-02-14T01:17:54.260Z,61.49
2017-02-14T01:18:54.274Z,61.11
2017-02-14T01:19:54.317Z,61.11
2017-02-14T01:20:54.309Z,61.21
2017-02-14T01:21:54.297Z,61.21
2017-02-14T01:22:53.915Z,61.21
2017-02-14T01:23:54.322Z,61.02
2017-02-14T01:24:54.331Z,61.02
2017-02-14T01:25:54.338Z,60.92
2017-02-14T01:26:53.954Z,61.11
2017-02-14T01:27:54.364Z,61.49
2017-02-14T01:28:54.376Z,60.92
2017-02-14T01:29:54.386Z,61.02
2017-02-14T01:30:54.405Z,61.11
2017-02-14T01:31:54.401Z,60.92
2017-02-14T01:32:54.409Z,60.92
2017-02-14T01:33:54.429Z,61.11
2017-02-14T01:34:54.429Z,61.02
2017-02-14T01:35:54.447Z,61.11
2017-02-14T01:36:57.494Z,61.11
2017-02-14T01:37:54.478Z,61.02
2017-02-14T01:38:54.486Z,61.11
2017-02-14T01:39:54.494Z,61.11
2017-02-14T01:40:54.506Z,61.11
2017-02-14T01:41:54.520Z,60.92
2017-02-14T01:42:54.526Z,61.21
2017-02-14T01:43:54.537Z,61.02
2017-02-14T01:44:54.529Z,61.21
2017-02-14T01:45:54.544Z,61.02
2017-02-14T01:46:54.554Z,61.02
2017-02-14T01:47:54.576Z,61.21
2017-02-14T01:48:54.592Z,61.49
2017-02-14T01:49:54.623Z,61.49
2017-02-14T01:50:54.611Z,61.49
2017-02-14T01:51:54.622Z,61.49
2017-02-14T01:52:54.625Z,61.58
2017-02-14T01:53:54.657Z,61.58
2017-02-14T01:54:54.647Z,61.58
2017-02-14T01:55:54.662Z,61.58
2017-02-14T01:56:54.666Z,61.3
2017-02-14T01:57:54.675Z,61.4
2017-02-14T01:58:54.683Z,61.11
2017-02-14T01:59:54.700Z,61.4
2017-02-14T02:00:54.709Z,61.21
2017-02-14T02:01:54.729Z,61.4
2017-02-14T02:02:54.724Z,61.49
2017-02-14T02:03:54.736Z,61.3
2017-02-14T02:04:54.745Z,61.21
2017-02-14T02:05:54.756Z,61.3
2017-02-14T02:06:54.763Z,61.3
2017-02-14T02:07:54.766Z,61.4
2017-02-14T02:08:54.779Z,61.21
2017-02-14T02:09:54.802Z,61.58
2017-02-14T02:10:54.806Z,61.49
2017-02-14T02:11:54.822Z,61.68
2017-02-14T02:12:54.820Z,61.68
2017-02-14T02:13:54.835Z,61.3
2017-02-14T02:14:54.835Z,61.58
2017-02-14T02:15:54.855Z,61.68
2017-02-14T02:16:54.877Z,61.49
2017-02-14T02:17:54.876Z,61.58
2017-02-14T02:18:54.887Z,61.68
2017-02-14T02:19:54.890Z,61.68
2017-02-14T02:20:54.915Z,61.58
2017-02-14T02:21:54.917Z,61.58
2017-02-14T02:22:54.914Z,61.4
2017-02-14T02:23:54.940Z,61.65
2017-02-14T02:24:54.947Z,61.68
2017-02-14T02:25:54.953Z,61.49
2017-02-14T02:26:54.965Z,61.58
2017-02-14T02:27:54.975Z,61.49
2017-02-14T02:28:54.992Z,61.46
2017-02-14T02:29:54.981Z,61.18
2017-02-14T02:30:54.994Z,61.27
2017-02-14T02:31:55.013Z,61.65
2017-02-14T02:32:55.023Z,61.49
2017-02-14T02:33:55.022Z,61.4
2017-02-14T02:34:55.045Z,61.74
2017-02-14T02:35:55.065Z,61.58
2017-02-14T02:36:55.072Z,61.83
2017-02-14T02:37:55.070Z,61.83
2017-02-14T02:38:55.082Z,61.93
2017-02-14T02:39:55.091Z,61.93
2017-02-14T02:40:55.087Z,61.55
2017-02-14T02:41:55.114Z,61.87
2017-02-14T02:42:55.123Z,61.93
2017-02-14T02:43:54.732Z,61.65
2017-02-14T02:44:55.141Z,61.65
2017-02-14T02:45:55.146Z,61.65
2017-02-14T02:46:55.156Z,61.74
2017-02-14T02:47:55.172Z,62.31
2017-02-14T02:48:55.223Z,62.12
2017-02-14T02:49:55.176Z,62.21
2017-02-14T02:50:55.202Z,62.02
2017-02-14T02:51:55.211Z,61.93
2017-02-14T02:52:55.217Z,62.12
2017-02-14T02:53:55.220Z,61.74
2017-02-14T02:54:55.247Z,61.74
2017-02-14T02:55:55.234Z,61.83
2017-02-14T02:56:55.258Z,62.21
2017-02-14T02:57:55.272Z,61.83
2017-02-14T02:58:55.279Z,62.12
2017-02-14T02:59:55.279Z,62.21
2017-02-14T03:00:55.309Z,62.21
2017-02-14T03:01:55.293Z,62.02
2017-02-14T03:02:55.319Z,62.02
2017-02-14T03:03:55.333Z,62.21
2017-02-14T03:04:55.322Z,62.21
2017-02-14T03:05:55.345Z,62.31
2017-02-14T03:06:55.365Z,62.4
2017-02-14T03:07:55.365Z,62.31
2017-02-14T03:08:55.377Z,62.31
2017-02-14T03:09:55.381Z,62.21
2017-02-14T03:10:55.387Z,61.83
2017-02-14T03:11:55.401Z,62.12
2017-02-14T03:12:55.417Z,61.93
2017-02-14T03:13:55.414Z,62.12
2017-02-14T03:14:55.452Z,62.31
2017-02-14T03:15:55.446Z,62.12
2017-02-14T03:16:55.465Z,62.4
2017-02-14T03:17:55.462Z,61.74
2017-02-14T03:18:55.487Z,62.31
2017-02-14T03:19:55.486Z,62.31
2017-02-14T03:20:55.478Z,62.12
2017-02-14T03:21:55.497Z,62.12
2017-02-14T03:22:55.517Z,62.12
2017-02-14T03:23:55.525Z,62.31
2017-02-14T03:24:55.531Z,62.21
2017-02-14T03:25:55.555Z,62.21
2017-02-14T03:26:55.549Z,62.31
2017-02-14T03:27:55.548Z,62.12
2017-02-14T03:28:55.569Z,62.12
2017-02-14T03:29:55.578Z,62.02
2017-02-14T03:30:55.222Z,61.83
2017-02-14T03:31:55.594Z,62.21
2017-02-14T03:32:55.610Z,62.21
2017-02-14T03:33:55.623Z,62.21
2017-02-14T03:34:55.634Z,62.31
2017-02-14T03:35:55.636Z,62.31
2017-02-14T03:36:55.660Z,62.21
2017-02-14T03:37:55.690Z,62.21
2017-02-14T03:38:55.660Z,61.83
2017-02-14T03:39:55.665Z,62.12
2017-02-14T03:40:55.666Z,62.12
2017-02-14T03:41:55.691Z,61.83
2017-02-14T03:42:55.302Z,62.21
2017-02-14T03:43:55.707Z,62.21
2017-02-14T03:44:55.718Z,62.02
2017-02-14T03:45:55.731Z,62.02
2017-02-14T03:46:55.723Z,62.02
2017-02-14T03:47:55.759Z,62.02
2017-02-14T03:48:55.766Z,62.21
2017-02-14T03:49:55.767Z,62.21
2017-02-14T03:50:55.772Z,62.21
2017-02-14T03:51:55.768Z,62.21
2017-02-14T03:52:55.797Z,62.21
2017-02-14T03:53:55.805Z,62.31
2017-02-14T03:54:55.888Z,62.4
2017-02-14T03:55:55.903Z,62.21
2017-02-14T03:56:55.909Z,62.21
2017-02-14T03:57:56.031Z,62.02
2017-02-14T03:58:55.935Z,61.93
2017-02-14T03:59:55.947Z,62.12
2017-02-14T04:00:55.979Z,62.12
2017-02-14T04:01:56.032Z,62.12
2017-02-14T04:02:56.171Z,62.02
2017-02-14T04:03:56.037Z,62.12
2017-02-14T04:04:56.048Z,61.74
2017-02-14T04:05:56.061Z,62.21
2017-02-14T04:06:56.021Z,62.12
2017-02-14T04:07:56.037Z,61.74
2017-02-14T04:08:56.059Z,62.02
2017-02-14T04:09:56.075Z,62.12
2017-02-14T04:10:56.093Z,61.74
2017-02-14T04:11:56.100Z,62.02
2017-02-14T04:12:56.244Z,62.02
2017-02-14T04:13:56.106Z,62.21
2017-02-14T04:14:56.158Z,62.21
2017-02-14T04:15:56.166Z,62.21
2017-02-14T04:16:56.175Z,62.31
2017-02-14T04:17:56.235Z,61.83
2017-02-14T04:18:56.155Z,62.21
2017-02-14T04:19:56.179Z,62.31
2017-02-14T04:20:56.199Z,62.02
2017-02-14T04:21:56.085Z,62.31
2017-02-14T04:22:56.073Z,62.4
2017-02-14T04:23:56.099Z,62.5
2017-02-14T04:24:56.096Z,62.59
2017-02-14T04:25:56.103Z,62.4
2017-02-14T04:26:55.705Z,62.59
2017-02-14T04:27:56.130Z,62.78
2017-02-14T04:28:56.141Z,62.69
2017-02-14T04:29:56.150Z,62.88
2017-02-14T04:30:56.158Z,62.69
2017-02-14T04:31:56.156Z,62.78
2017-02-14T04:32:56.191Z,63.35
2017-02-14T04:33:56.177Z,63.45
2017-02-14T04:34:56.219Z,63.35
2017-02-14T04:35:56.194Z,63.35
2017-02-14T04:36:56.210Z,63.35
2017-02-14T04:37:55.820Z,63.35
2017-02-14T04:38:55.832Z,63.35
2017-02-14T04:39:56.239Z,63.07
2017-02-14T04:40:56.236Z,63.26
2017-02-14T04:41:56.244Z,63.35
2017-02-14T04:42:56.264Z,63.35
2017-02-14T04:43:56.274Z,62.97
2017-02-14T04:44:56.273Z,63.16
2017-02-14T04:45:56.290Z,63.26
2017-02-14T04:46:56.295Z,63.45
2017-02-14T04:47:56.316Z,63.45
2017-02-14T04:48:56.329Z,63.54
2017-02-14T04:49:56.329Z,63.64
2017-02-14T04:50:56.331Z,63.35
2017-02-14T04:51:56.351Z,63.45
2017-02-14T04:52:56.353Z,63.16
2017-02-14T04:53:56.365Z,63.26
2017-02-14T04:54:56.377Z,63.16
2017-02-14T04:55:56.432Z,63.26
2017-02-14T04:56:56.389Z,63.16
2017-02-14T04:57:56.010Z,63.35
2017-02-14T04:58:56.422Z,63.64
2017-02-14T04:59:56.411Z,63.64
2017-02-14T05:00:56.421Z,63.73
2017-02-14T05:01:56.442Z,63.64
2017-02-14T05:02:56.456Z,63.82
2017-02-14T05:03:56.452Z,63.64
2017-02-14T05:04:56.475Z,63.35
2017-02-14T05:05:56.492Z,63.64
2017-02-14T05:06:56.489Z,63.73
2017-02-14T05:07:56.498Z,63.73
2017-02-14T05:08:56.506Z,63.73
2017-02-14T05:09:56.537Z,63.73
2017-02-14T05:10:56.530Z,63.73
2017-02-14T05:11:56.535Z,63.64
2017-02-14T05:12:56.548Z,63.73
2017-02-14T05:13:56.587Z,63.54
2017-02-14T05:14:56.564Z,63.54
2017-02-14T05:15:56.582Z,63.73
2017-02-14T05:16:56.584Z,63.73
2017-02-14T05:17:56.596Z,63.64
2017-02-14T05:18:56.597Z,63.82
2017-02-14T05:19:56.606Z,64.01
2017-02-14T05:20:56.614Z,64.11
2017-02-14T05:21:56.625Z,64.11
2017-02-14T05:22:56.645Z,64.11
2017-02-14T05:23:56.645Z,63.92
2017-02-14T05:24:56.655Z,63.73
2017-02-14T05:25:56.672Z,63.82
2017-02-14T05:26:56.682Z,64.11
2017-02-14T05:27:56.697Z,63.82
2017-02-14T05:28:56.681Z,63.92
2017-02-14T05:29:56.301Z,63.73
2017-02-14T05:30:56.716Z,63.92
2017-02-14T05:31:56.727Z,64.01
2017-02-14T05:32:56.732Z,63.92
2017-02-14T05:33:56.742Z,64.3
2017-02-14T05:34:56.741Z,63.73
2017-02-14T05:35:56.744Z,63.92
2017-02-14T05:36:56.772Z,63.64
2017-02-14T05:37:56.771Z,63.92
2017-02-14T05:38:56.777Z,63.73
2017-02-14T05:39:56.793Z,64.01
2017-02-14T05:40:56.800Z,64.01
2017-02-14T05:41:56.817Z,63.82
2017-02-14T05:42:56.828Z,63.73
2017-02-14T05:43:56.835Z,64.01
2017-02-14T05:44:56.837Z,64.01
2017-02-14T05:45:56.852Z,64.01
2017-02-14T05:46:56.478Z,64.01
2017-02-14T05:47:56.469Z,63.54
2017-02-14T05:48:56.880Z,63.54
2017-02-14T05:49:56.887Z,63.54
2017-02-14T05:50:56.913Z,63.82
2017-02-14T05:51:56.900Z,63.92
2017-02-14T05:52:56.916Z,63.73
2017-02-14T05:53:56.929Z,63.82
2017-02-14T05:54:56.930Z,63.92
2017-02-14T05:55:56.941Z,64.26
2017-02-14T05:56:56.953Z,63.64
2017-02-14T05:57:56.972Z,64.3
2017-02-14T05:58:56.973Z,64.2
2017-02-14T05:59:56.979Z,64.26
2017-02-14T06:00:56.995Z,64.2
2017-02-14T06:01:57.002Z,64.2
2017-02-14T06:02:57.003Z,63.82
2017-02-14T06:03:57.011Z,63.89
2017-02-14T06:04:57.032Z,63.98
2017-02-14T06:05:57.030Z,64.01
2017-02-14T06:06:57.031Z,63.98
2017-02-14T06:07:57.070Z,63.98
2017-02-14T06:08:57.065Z,64.3
2017-02-14T06:09:57.066Z,64.26
2017-02-14T06:10:57.084Z,64.58
2017-02-14T06:11:57.101Z,64.17
2017-02-14T06:12:57.116Z,64.74
2017-02-14T06:13:57.111Z,64.68
2017-02-14T06:14:57.143Z,64.58
2017-02-14T06:15:57.127Z,64.93
2017-02-14T06:16:57.136Z,64.64
2017-02-14T06:17:57.130Z,65.15
2017-02-14T06:18:57.152Z,65.15
2017-02-14T06:19:57.157Z,64.45
2017-02-14T06:20:57.165Z,64.77
2017-02-14T06:21:57.204Z,64.58
2017-02-14T06:22:57.190Z,64.64
2017-02-14T06:23:57.202Z,64.64
2017-02-14T06:24:57.213Z,64.74
2017-02-14T06:25:57.214Z,64.77
2017-02-14T06:26:56.827Z,64.77
2017-02-14T06:27:57.344Z,64.83
2017-02-14T06:28:57.327Z,64.87
2017-02-14T06:29:57.362Z,64.55
2017-02-14T06:30:57.374Z,64.74
2017-02-14T06:31:57.379Z,64.93
2017-02-14T06:32:57.373Z,64.64
2017-02-14T06:33:57.283Z,64.77
2017-02-14T06:34:57.305Z,64.55
2017-02-14T06:35:57.309Z,64.64
2017-02-14T06:36:57.343Z,64.55
2017-02-14T06:37:57.330Z,64.68
2017-02-14T06:38:57.328Z,65.02
2017-02-14T06:39:57.343Z,64.55
2017-02-14T06:40:57.363Z,64.77
2017-02-14T06:41:57.373Z,65.06
2017-02-14T06:42:57.368Z,65.21
2017-02-14T06:43:57.383Z,65.31
2017-02-14T06:44:57.398Z,65.25
2017-02-14T06:45:57.400Z,65.21
2017-02-14T06:46:57.017Z,65.12
2017-02-14T06:47:57.439Z,65.15
2017-02-14T06:48:57.445Z,65.06
2017-02-14T06:49:57.551Z,65.12
2017-02-14T06:50:57.462Z,65.06
2017-02-14T06:51:57.462Z,65.63
2017-02-14T06:52:57.477Z,65.15
2017-02-14T06:53:57.169Z,65.63
2017-02-14T06:54:57.480Z,65.53
2017-02-14T06:55:57.493Z,65.31
2017-02-14T06:56:57.495Z,65.63
2017-02-14T06:57:57.514Z,65.25
2017-02-14T06:58:57.529Z,65.25
2017-02-14T06:59:57.533Z,65.06
2017-02-14T07:00:57.540Z,65.25
2017-02-14T07:01:57.551Z,65.53
2017-02-14T07:02:57.553Z,65.72
2017-02-14T07:03:57.567Z,65.25
2017-02-14T07:04:57.574Z,65.44
2017-02-14T07:05:57.587Z,65.81
2017-02-14T07:06:57.588Z,65.63
2017-02-14T07:07:57.690Z,65.81
2017-02-14T07:08:57.688Z,65.81
2017-02-14T07:09:57.711Z,65.72
2017-02-14T07:10:57.353Z,65.72
2017-02-14T07:11:57.634Z,65.53
2017-02-14T07:12:57.649Z,65.63
2017-02-14T07:13:57.637Z,65.91
2017-02-14T07:14:57.657Z,65.63
2017-02-14T07:15:57.690Z,65.53
2017-02-14T07:16:57.688Z,65.81
2017-02-14T07:17:57.692Z,65.63
2017-02-14T07:18:57.703Z,65.63
2017-02-14T07:19:57.714Z,65.72
2017-02-14T07:20:57.717Z,65.81
2017-02-14T07:21:57.731Z,65.91
2017-02-14T07:22:57.731Z,65.63
2017-02-14T07:23:57.756Z,65.63
2017-02-14T07:24:57.768Z,66
2017-02-14T07:25:57.765Z,66
2017-02-14T07:26:57.769Z,66.09
2017-02-14T07:27:57.785Z,66.19
2017-02-14T07:28:57.792Z,66.09
2017-02-14T07:29:57.788Z,66
2017-02-14T07:30:57.830Z,65.72
2017-02-14T07:31:57.825Z,65.63
2017-02-14T07:32:57.818Z,65.63
2017-02-14T07:33:57.832Z,66
2017-02-14T07:34:57.860Z,65.53
2017-02-14T07:35:57.879Z,65.81
2017-02-14T07:36:57.874Z,65.53
2017-02-14T07:37:57.977Z,65.53
2017-02-14T07:38:57.883Z,65.72
2017-02-14T07:39:57.901Z,65.53
2017-02-14T07:40:57.904Z,65.53
2017-02-14T07:41:57.907Z,66.09
2017-02-14T07:42:57.928Z,66.19
2017-02-14T07:43:57.918Z,66
2017-02-14T07:44:57.946Z,66.09
2017-02-14T07:45:57.938Z,66.28
2017-02-14T07:46:57.962Z,66.19
2017-02-14T07:47:57.968Z,66.38
2017-02-14T07:48:57.981Z,66.38
2017-02-14T07:49:57.987Z,66.38
2017-02-14T07:50:57.994Z,66.38
2017-02-14T07:51:57.998Z,66
2017-02-14T07:52:58.016Z,66.09
2017-02-14T07:53:58.147Z,66.09
2017-02-14T07:54:58.046Z,66.38
2017-02-14T07:55:58.045Z,65.91
2017-02-14T07:56:58.067Z,66.19
2017-02-14T07:57:58.065Z,66.09
2017-02-14T07:58:58.070Z,66.19
2017-02-14T07:59:58.067Z,66.28
2017-02-14T08:00:58.079Z,66.38
2017-02-14T08:01:58.095Z,66.28
2017-02-14T08:02:58.098Z,66.19
2017-02-14T08:03:58.108Z,66
2017-02-14T08:04:58.161Z,66.47
2017-02-14T08:05:58.235Z,66.47
2017-02-14T08:06:58.198Z,66.47
2017-02-14T08:07:58.235Z,66.47
2017-02-14T08:08:58.283Z,66.13
2017-02-14T08:09:58.293Z,65.81
2017-02-14T08:10:58.184Z,65.94
2017-02-14T08:11:58.237Z,66.22
2017-02-14T08:12:58.262Z,65.91
2017-02-14T08:13:58.247Z,66.51
2017-02-14T08:14:58.266Z,66.41
2017-02-14T08:15:58.276Z,66.22
2017-02-14T08:16:58.289Z,65.94
2017-02-14T08:17:58.343Z,65.94
2017-02-14T08:18:58.350Z,66.22
2017-02-14T08:19:58.359Z,66.6
2017-02-14T08:20:58.368Z,66.13
2017-02-14T08:21:58.271Z,66.6
2017-02-14T08:22:58.372Z,66.89
2017-02-14T08:23:58.383Z,65.94
2017-02-14T08:24:58.431Z,66.51
2017-02-14T08:25:58.327Z,66.03
2017-02-14T08:26:58.440Z,66.8
2017-02-14T08:27:58.394Z,66.8
2017-02-14T08:28:58.351Z,66.51
2017-02-14T08:29:58.370Z,66.03
2017-02-14T08:30:58.381Z,66.8
2017-02-14T08:31:58.388Z,66.8
2017-02-14T08:32:58.390Z,66.8
2017-02-14T08:33:58.400Z,66.6
2017-02-14T08:34:58.422Z,66.03
2017-02-14T08:35:58.414Z,66.6
2017-02-14T08:36:58.428Z,66.03
2017-02-14T08:37:58.448Z,66.32
2017-02-14T08:38:58.447Z,66.13
2017-02-14T08:39:58.446Z,65.75
2017-02-14T08:40:58.462Z,65.84
2017-02-14T08:41:58.466Z,65.66
2017-02-14T08:42:58.486Z,65.47
2017-02-14T08:43:58.503Z,65.28
2017-02-14T08:44:58.509Z,65.47
2017-02-14T08:45:58.524Z,65.37
2017-02-14T08:46:58.521Z,65.28
2017-02-14T08:47:58.535Z,65.47
2017-02-14T08:48:58.525Z,65.66
2017-02-14T08:49:58.551Z,65.37
2017-02-14T08:50:58.564Z,65.66
2017-02-14T08:51:58.563Z,65.5
2017-02-14T08:52:58.590Z,65.22
2017-02-14T08:53:58.593Z,65.41
2017-02-14T08:54:58.599Z,65.22
2017-02-14T08:55:58.597Z,65.41
2017-02-14T08:56:58.719Z,65.41
2017-02-14T08:57:58.822Z,65.31
2017-02-14T08:58:58.724Z,65.59
2017-02-14T08:59:58.728Z,65.59
2017-02-14T09:00:58.845Z,65.59
2017-02-14T09:01:58.858Z,65.5
2017-02-14T09:02:58.914Z,65.69
2017-02-14T09:03:58.778Z,65.22
2017-02-14T09:04:58.407Z,65.59
2017-02-14T09:05:58.798Z,65.03
2017-02-14T09:06:58.823Z,65.22
2017-02-14T09:07:58.914Z,65.22
2017-02-14T09:08:58.866Z,65.22
2017-02-14T09:09:58.831Z,65.12
2017-02-14T09:10:58.850Z,65.12
2017-02-14T09:11:58.859Z,64.93
2017-02-14T09:12:58.881Z,65.12
2017-02-14T09:13:58.829Z,65.22
2017-02-14T09:14:58.848Z,65.12
2017-02-14T09:15:58.861Z,65.31
2017-02-14T09:16:58.882Z,65.31
2017-02-14T09:17:58.931Z,65.41
2017-02-14T09:18:58.884Z,65.5
2017-02-14T09:19:58.919Z,65.31
2017-02-14T09:20:58.932Z,64.93
2017-02-14T09:21:58.868Z,65.34
2017-02-14T09:22:58.943Z,65.25
2017-02-14T09:23:58.890Z,65.25
2017-02-14T09:24:58.896Z,64.78
2017-02-14T09:25:58.911Z,64.59
2017-02-14T09:26:58.912Z,64.59
2017-02-14T09:27:59.118Z,65.06
2017-02-14T09:28:58.950Z,64.87
2017-02-14T09:29:58.946Z,65.06
2017-02-14T09:30:58.962Z,65.06
2017-02-14T09:31:58.961Z,65.06
2017-02-14T09:32:58.971Z,64.68
2017-02-14T09:33:58.985Z,64.59
2017-02-14T09:34:59.006Z,64.49
2017-02-14T09:35:59.011Z,64.68
2017-02-14T09:36:59.017Z,64.11
2017-02-14T09:37:59.015Z,64.2
2017-02-14T09:38:59.039Z,64.49
2017-02-14T09:39:59.048Z,64.3
2017-02-14T09:40:59.061Z,64.49
2017-02-14T09:41:59.067Z,63.82
2017-02-14T09:42:59.075Z,63.73
2017-02-14T09:43:59.095Z,63.92
2017-02-14T09:44:59.106Z,64.11
2017-02-14T09:45:59.131Z,64.01
2017-02-14T09:46:59.140Z,63.82
2017-02-14T09:47:59.149Z,64.2
2017-02-14T09:48:59.148Z,63.92
2017-02-14T09:49:59.153Z,63.64
2017-02-14T09:50:59.168Z,63.64
2017-02-14T09:51:59.167Z,63.54
2017-02-14T09:52:59.177Z,64.14
2017-02-14T09:53:59.189Z,64.33
2017-02-14T09:54:59.211Z,63.76
2017-02-14T09:55:59.216Z,64.14
2017-02-14T09:56:59.234Z,64.71
2017-02-14T09:57:59.228Z,64.43
2017-02-14T09:58:59.247Z,64.24
2017-02-14T09:59:59.251Z,64.33
2017-02-14T10:00:59.275Z,64.24
2017-02-14T10:01:59.281Z,64.33
2017-02-14T10:02:58.896Z,63.86
2017-02-14T10:03:59.309Z,63.95
2017-02-14T10:04:59.327Z,63.76
2017-02-14T10:05:59.335Z,63.48
2017-02-14T10:06:59.331Z,63.48
2017-02-14T10:07:59.339Z,63.76
2017-02-14T10:08:59.355Z,63.48
2017-02-14T10:09:59.364Z,63.95
2017-02-14T10:10:59.442Z,63.57
2017-02-14T10:11:59.391Z,63.48
2017-02-14T10:12:59.397Z,63.39
2017-02-14T10:13:59.388Z,63.29
2017-02-14T10:14:59.422Z,63.48
2017-02-14T10:15:59.444Z,63.79
2017-02-14T10:16:59.045Z,63.32
2017-02-14T10:17:59.456Z,63.04
2017-02-14T10:18:59.466Z,63.51
2017-02-14T10:19:59.465Z,63.32
2017-02-14T10:20:59.479Z,63.42
2017-02-14T10:21:59.491Z,63.23
2017-02-14T10:22:59.514Z,63.32
2017-02-14T10:23:59.513Z,63.32
2017-02-14T10:24:59.538Z,63.42
2017-02-14T10:25:59.536Z,63.04
2017-02-14T10:26:59.552Z,63.23
2017-02-14T10:27:59.562Z,62.66
2017-02-14T10:28:59.171Z,62.46
2017-02-14T10:29:59.577Z,62.56
2017-02-14T10:30:59.599Z,62.08
2017-02-14T10:31:59.608Z,62.37
2017-02-14T10:32:59.615Z,62.27
2017-02-14T10:33:59.617Z,62.37
2017-02-14T10:34:59.644Z,62.66
2017-02-14T10:35:59.635Z,62.46
2017-02-14T10:36:59.673Z,61.99
2017-02-14T10:37:59.681Z,62.12
2017-02-14T10:38:59.686Z,62.4
2017-02-14T10:39:59.720Z,62.21
2017-02-14T10:40:59.719Z,62.31
2017-02-14T10:41:59.824Z,62.5
2017-02-14T10:42:59.820Z,61.74
2017-02-14T10:43:59.835Z,61.93
2017-02-14T10:44:59.875Z,61.83
2017-02-14T10:45:59.786Z,62.4
2017-02-14T10:46:59.805Z,62.31
2017-02-14T10:47:59.884Z,62.4
2017-02-14T10:48:59.808Z,62.4
2017-02-14T10:49:59.804Z,62.59
2017-02-14T10:50:59.813Z,61.26
2017-02-14T10:51:59.844Z,61.74
2017-02-14T10:52:59.844Z,61.45
2017-02-14T10:53:59.865Z,61.36
2017-02-14T10:54:59.855Z,61.36
2017-02-14T10:55:59.881Z,61.55
2017-02-14T10:56:59.889Z,61.83
2017-02-14T10:57:59.889Z,61.74
2017-02-14T10:58:59.918Z,61.83
2017-02-14T10:59:59.923Z,61.65
2017-02-14T11:00:59.931Z,61.65
2017-02-14T11:01:59.956Z,61.77
2017-02-14T11:02:59.960Z,61.58
2017-02-14T11:03:59.973Z,61.68
2017-02-14T11:04:59.965Z,61.48
2017-02-14T11:05:59.988Z,61.39
2017-02-14T11:07:00.008Z,61.29
2017-02-14T11:08:00.023Z,61.01
2017-02-14T11:09:00.033Z,61.2
2017-02-14T11:10:00.044Z,60.82
2017-02-14T11:11:00.043Z,60.72
2017-02-14T11:12:00.074Z,60.82
2017-02-14T11:13:00.069Z,60.72
2017-02-14T11:14:00.088Z,60.82
2017-02-14T11:15:00.100Z,60.63
2017-02-14T11:15:59.716Z,60.72
2017-02-14T11:17:00.129Z,60.72
2017-02-14T11:18:00.134Z,60.91
2017-02-14T11:19:00.141Z,60.82
2017-02-14T11:20:00.161Z,60.06
2017-02-14T11:21:00.186Z,60.66
2017-02-14T11:22:00.190Z,60.09
2017-02-14T11:23:00.202Z,59.96
2017-02-14T11:24:00.200Z,60.09
2017-02-14T11:25:00.238Z,60.09
2017-02-14T11:26:00.225Z,59.9
2017-02-14T11:27:00.250Z,60.09
2017-02-14T11:28:00.247Z,60.09
2017-02-14T11:29:00.276Z,59.9
2017-02-14T11:30:00.291Z,59.99
2017-02-14T11:31:00.297Z,59.8
2017-02-14T11:32:00.338Z,59.9
2017-02-14T11:33:00.314Z,59.9
2017-02-14T11:34:00.327Z,59.8
2017-02-14T11:35:00.352Z,59.9
2017-02-14T11:36:00.362Z,59.71
2017-02-14T11:37:00.363Z,59.99
2017-02-14T11:38:00.568Z,59.9
2017-02-14T11:39:00.521Z,59.8
2017-02-14T11:40:00.530Z,59.9
2017-02-14T11:41:00.578Z,59.71
2017-02-14T11:42:00.432Z,59.52
2017-02-14T11:43:00.463Z,59.42
2017-02-14T11:44:00.449Z,59.52
2017-02-14T11:45:00.470Z,59.61
2017-02-14T11:46:00.488Z,59.42
2017-02-14T11:47:00.531Z,59.33
2017-02-14T11:48:00.507Z,59.33
2017-02-14T11:49:00.516Z,59.17
2017-02-14T11:50:00.138Z,59.17
2017-02-14T11:51:00.554Z,59.36
2017-02-14T11:52:00.565Z,58.98
2017-02-14T11:53:00.565Z,58.88
2017-02-14T11:54:00.588Z,59.07
2017-02-14T11:55:00.598Z,58.88
2017-02-14T11:56:00.611Z,58.98
2017-02-14T11:57:00.623Z,58.5
2017-02-14T11:58:00.643Z,58.69
2017-02-14T11:59:00.647Z,58.59
2017-02-14T12:00:00.685Z,58.4
2017-02-14T12:01:00.673Z,58.22
2017-02-14T12:02:00.692Z,58.5
2017-02-14T12:03:00.705Z,58.59
2017-02-14T12:04:00.724Z,58.5
2017-02-14T12:05:00.737Z,58.5
2017-02-14T12:06:00.736Z,58.88
2017-02-14T12:07:00.743Z,58.59
2017-02-14T12:08:00.766Z,58.91
2017-02-14T12:09:00.781Z,58.25
2017-02-14T12:10:00.791Z,58.62
2017-02-14T12:11:00.806Z,58.62
2017-02-14T12:12:00.821Z,58.34
2017-02-14T12:13:00.828Z,57.58
2017-02-14T12:14:00.847Z,57.87
2017-02-14T12:15:00.853Z,57.58
2017-02-14T12:16:00.882Z,57.48
2017-02-14T12:17:00.882Z,57.67
2017-02-14T12:18:00.904Z,57.58
2017-02-14T12:19:00.915Z,57.39
2017-02-14T12:20:00.932Z,57.2
2017-02-14T12:21:00.974Z,56.82
2017-02-14T12:22:01.077Z,57.01
2017-02-14T12:23:00.968Z,56.82
2017-02-14T12:24:00.982Z,57.1
2017-02-14T12:25:00.975Z,56.53
2017-02-14T12:26:01.013Z,56.72
2017-02-14T12:27:00.646Z,57.01
2017-02-14T12:28:01.034Z,56.53
2017-02-14T12:29:01.045Z,57.1
2017-02-14T12:30:01.066Z,57.1
2017-02-14T12:31:01.076Z,57.39
2017-02-14T12:32:01.094Z,57.1
2017-02-14T12:33:01.089Z,57.39
2017-02-14T12:34:01.123Z,57.58
2017-02-14T12:35:00.731Z,57.67
2017-02-14T12:36:01.137Z,57.29
2017-02-14T12:37:01.160Z,57.2
2017-02-14T12:38:01.159Z,57.13
2017-02-14T12:39:01.191Z,56.92
2017-02-14T12:40:01.193Z,57.51
2017-02-14T12:41:01.217Z,57.04
2017-02-14T12:42:01.222Z,57.13
2017-02-14T12:43:01.230Z,57.04
2017-02-14T12:44:01.331Z,57.32
2017-02-14T12:45:01.399Z,57.32
2017-02-14T12:46:01.415Z,57.32
2017-02-14T12:47:01.412Z,57.23
2017-02-14T12:48:01.411Z,56.94
2017-02-14T12:49:01.431Z,57.04
2017-02-14T12:50:01.423Z,56.65
2017-02-14T12:51:01.441Z,56.75
2017-02-14T12:52:01.176Z,57.04
2017-02-14T12:53:01.564Z,57.04
2017-02-14T12:54:01.494Z,56.75
2017-02-14T12:55:01.507Z,56.94
2017-02-14T12:56:01.565Z,57.23